Portada
METAR-TAF:

METAR-TAF

Aeroports :

Munda, New Georgia, Illes Salomó

latitud: 8-19-41S, longitud: 157-15-47E, altitud: 3 m

Observació

L'informe es va fer fa 2 hores i 50 minuts, a les 05:00 UTC
Vent 4 kt del Sud-Oest
Temperatura 30°C
Humitat 75%
Pressió 1008 hPa
Visibilitat 10 km o més
Escasses núvols a una alçada de 1800 ft
Escasses núvols a una alçada de 1900 ft, Cumulonimbus.

METAR: AGGM 220500Z 23004KT 9999 FEW018 FEW019CB 30/25 Q1008

Hora: 18:50 (07:50 UTC)

Pronòstic

L'informe es va fer fa 2 hores i 25 minuts, a les 05:25 UTC
Pronòstic vàlid del 22 a les 06 UTC al 23 a les 06 UTC
Vent 10 kt del Oest/Sud-Oest
Visibilitat: 1008 m
Núvols disperses a una alçada de 1800 ft

TAF: AGGM 220525Z 2206/2306 25010KT 9999 SCT018 Q 1007 1009 1010 1008

Observacions i pronòstics meteorològics de més de 4000 aeroports (METAR i TAF).

Les estacions disponibles són els punts grocs i vermells al mapa.

Posi el ratolí al punt desitjat per veure el nom de l'estació.

Feu clic per veure les observacions i els pronòstics meteorològics.

Per canviar el mapa: feu clic els botons verds amb una creu de color negre per apropar; al botó verd amb un guió per allunyar la imatge; o en les fletxes verdes per a mapes adjacents.


METAR-TAF: